createdAt,value
2016-05-05T00:00:38.336Z,0
2016-05-05T00:01:38.307Z,0
2016-05-05T00:02:38.295Z,0
2016-05-05T00:03:38.109Z,0
2016-05-05T00:04:38.237Z,0
2016-05-05T00:05:38.333Z,0
2016-05-05T00:06:38.055Z,0
2016-05-05T00:07:38.448Z,0
2016-05-05T00:08:38.013Z,0
2016-05-05T00:09:38.376Z,0
2016-05-05T00:10:37.972Z,0
2016-05-05T00:11:37.959Z,0
2016-05-05T00:12:38.102Z,0
2016-05-05T00:13:39.136Z,0
2016-05-05T00:14:38.061Z,0
2016-05-05T00:15:38.485Z,0
2016-05-05T00:16:38.035Z,0
2016-05-05T00:17:37.849Z,0
2016-05-05T00:18:37.994Z,0
2016-05-05T00:19:37.949Z,0
2016-05-05T00:20:37.937Z,0
2016-05-05T00:21:38.377Z,0
2016-05-05T00:22:37.910Z,0
2016-05-05T00:23:38.491Z,0
2016-05-05T00:24:37.729Z,0
2016-05-05T00:25:37.856Z,0
2016-05-05T00:26:37.828Z,0
2016-05-05T00:27:37.659Z,0
2016-05-05T00:28:37.661Z,0
2016-05-05T00:29:37.617Z,0
2016-05-05T00:30:37.853Z,0
2016-05-05T00:31:37.732Z,0
2016-05-05T00:32:37.719Z,0
2016-05-05T00:33:37.705Z,0
2016-05-05T00:34:37.537Z,0
2016-05-05T00:35:37.680Z,0
2016-05-05T00:36:37.651Z,0
2016-05-05T00:37:37.623Z,0
2016-05-05T00:38:37.281Z,0
2016-05-05T00:39:38.503Z,0
2016-05-05T00:40:37.583Z,0
2016-05-05T00:41:37.555Z,0
2016-05-05T00:42:37.371Z,0
2016-05-05T00:43:37.514Z,0
2016-05-05T00:44:37.501Z,0
2016-05-05T00:45:37.472Z,0
2016-05-05T00:46:37.459Z,0
2016-05-05T00:47:37.760Z,0
2016-05-05T00:48:37.418Z,0
2016-05-05T00:49:37.499Z,0
2016-05-05T00:50:37.407Z,0
2016-05-05T00:51:37.224Z,0
2016-05-05T00:52:37.194Z,0
2016-05-05T00:53:37.322Z,0
2016-05-05T00:54:37.809Z,0
2016-05-05T00:55:37.156Z,0
2016-05-05T00:56:37.127Z,0
2016-05-05T00:57:37.255Z,0
2016-05-05T00:58:36.930Z,0
2016-05-05T00:59:37.213Z,0
2016-05-05T01:00:37.028Z,0
2016-05-05T01:01:37.172Z,0
2016-05-05T01:02:37.425Z,0
2016-05-05T01:03:37.145Z,0
2016-05-05T01:04:36.820Z,0
2016-05-05T01:05:37.104Z,0
2016-05-05T01:06:37.123Z,0
2016-05-05T01:07:37.078Z,0
2016-05-05T01:08:36.894Z,0
2016-05-05T01:09:37.224Z,0
2016-05-05T01:10:37.414Z,0
2016-05-05T01:11:36.980Z,0
2016-05-05T01:12:36.982Z,0
2016-05-05T01:13:36.844Z,0
2016-05-05T01:14:36.925Z,0
2016-05-05T01:15:36.928Z,0
2016-05-05T01:16:36.900Z,0
2016-05-05T01:17:36.902Z,0
2016-05-05T01:18:37.405Z,0
2016-05-05T01:19:36.845Z,0
2016-05-05T01:20:36.832Z,0
2016-05-05T01:21:36.663Z,0
2016-05-05T01:22:36.666Z,0
2016-05-05T01:23:36.621Z,0
2016-05-05T01:24:37.202Z,0
2016-05-05T01:25:36.737Z,0
2016-05-05T01:26:37.427Z,0
2016-05-05T01:27:36.538Z,0
2016-05-05T01:28:36.557Z,0
2016-05-05T01:29:36.668Z,0
2016-05-05T01:30:36.640Z,0
2016-05-05T01:31:36.471Z,0
2016-05-05T01:32:36.631Z,0
2016-05-05T01:33:36.586Z,0
2016-05-05T01:34:36.667Z,0
2016-05-05T01:35:36.420Z,0
2016-05-05T01:36:36.392Z,0
2016-05-05T01:37:36.362Z,0
2016-05-05T01:38:36.350Z,0
2016-05-05T01:39:36.133Z,0
2016-05-05T01:40:36.464Z,0
2016-05-05T01:41:36.467Z,0
2016-05-05T01:42:36.673Z,0
2016-05-05T01:43:36.472Z,0
2016-05-05T01:44:36.397Z,0
2016-05-05T01:45:36.384Z,0
2016-05-05T01:46:36.355Z,0
2016-05-05T01:47:36.341Z,0
2016-05-05T01:48:36.329Z,0
2016-05-05T01:49:36.144Z,0
2016-05-05T01:50:36.694Z,0
2016-05-05T01:51:36.260Z,0
2016-05-05T01:52:36.267Z,0
2016-05-05T01:53:36.125Z,0
2016-05-05T01:54:36.342Z,0
2016-05-05T01:55:36.341Z,0
2016-05-05T01:56:36.198Z,0
2016-05-05T01:57:36.511Z,0
2016-05-05T01:58:36.232Z,0
2016-05-05T01:59:36.079Z,0
2016-05-05T02:00:36.378Z,0
2016-05-05T02:01:36.366Z,0
2016-05-05T02:02:36.363Z,0
2016-05-05T02:03:36.200Z,0
2016-05-05T02:04:56.395Z,0
2016-05-05T02:05:36.639Z,0
2016-05-05T02:06:36.163Z,0
2016-05-05T02:07:36.137Z,0
2016-05-05T02:08:36.283Z,0
2016-05-05T02:09:36.413Z,0
2016-05-05T02:10:36.245Z,0
2016-05-05T02:11:36.233Z,0
2016-05-05T02:12:36.067Z,0
2016-05-05T02:13:36.649Z,0
2016-05-05T02:14:36.182Z,0
2016-05-05T02:15:36.171Z,0
2016-05-05T02:16:36.142Z,0
2016-05-05T02:17:36.130Z,0
2016-05-05T02:18:35.962Z,0
2016-05-05T02:19:36.074Z,0
2016-05-05T02:20:35.936Z,0
2016-05-05T02:21:36.658Z,0
2016-05-05T02:22:36.037Z,0
2016-05-05T02:23:36.025Z,0
2016-05-05T02:24:36.027Z,0
2016-05-05T02:25:35.999Z,0
2016-05-05T02:26:35.954Z,0
2016-05-05T02:27:35.785Z,0
2016-05-05T02:28:35.929Z,0
2016-05-05T02:29:35.807Z,0
2016-05-05T02:30:35.888Z,0
2016-05-05T02:31:36.062Z,0
2016-05-05T02:32:35.690Z,0
2016-05-05T02:33:35.817Z,0
2016-05-05T02:34:35.820Z,0
2016-05-05T02:35:35.807Z,0
2016-05-05T02:36:35.638Z,0
2016-05-05T02:37:35.984Z,0
2016-05-05T02:38:35.737Z,0
2016-05-05T02:39:36.240Z,0
2016-05-05T02:40:35.556Z,0
2016-05-05T02:41:35.527Z,0
2016-05-05T02:42:35.670Z,0
2016-05-05T02:43:35.641Z,0
2016-05-05T02:44:35.629Z,0
2016-05-05T02:45:35.959Z,0
2016-05-05T02:46:35.586Z,0
2016-05-05T02:47:36.074Z,0
2016-05-05T02:48:35.577Z,0
2016-05-05T02:49:35.391Z,0
2016-05-05T02:50:35.520Z,0
2016-05-05T02:51:35.522Z,0
2016-05-05T02:52:35.447Z,0
2016-05-05T02:53:35.465Z,0
2016-05-05T02:54:35.499Z,0
2016-05-05T02:55:35.377Z,0
2016-05-05T02:56:35.427Z,0
2016-05-05T02:57:35.241Z,0
2016-05-05T02:58:35.354Z,0
2016-05-05T02:59:35.201Z,0
2016-05-05T03:00:35.579Z,0
2016-05-05T03:01:35.159Z,0
2016-05-05T03:02:35.130Z,0
2016-05-05T03:03:35.336Z,0
2016-05-05T03:04:35.260Z,0
2016-05-05T03:05:35.092Z,0
2016-05-05T03:06:35.250Z,0
2016-05-05T03:07:35.206Z,0
2016-05-05T03:08:35.287Z,0
2016-05-05T03:09:36.978Z,0
2016-05-05T03:10:35.026Z,0
2016-05-05T03:11:34.825Z,0
2016-05-05T03:12:35.125Z,0
2016-05-05T03:13:35.113Z,0
2016-05-05T03:14:34.928Z,0
2016-05-05T03:15:34.899Z,0
2016-05-05T03:16:35.449Z,0
2016-05-05T03:17:34.889Z,0
2016-05-05T03:18:35.017Z,0
2016-05-05T03:19:34.833Z,0
2016-05-05T03:20:34.960Z,0
2016-05-05T03:21:34.790Z,0
2016-05-05T03:22:34.949Z,0
2016-05-05T03:23:34.452Z,0
2016-05-05T03:24:35.361Z,0
2016-05-05T03:25:34.724Z,0
2016-05-05T03:26:34.866Z,0
2016-05-05T03:27:34.869Z,0
2016-05-05T03:28:34.684Z,0
2016-05-05T03:29:34.813Z,0
2016-05-05T03:30:34.799Z,0
2016-05-05T03:31:34.629Z,0
2016-05-05T03:32:34.742Z,0
2016-05-05T03:33:34.573Z,0
2016-05-05T03:34:34.966Z,0
2016-05-05T03:35:34.704Z,0
2016-05-05T03:36:34.659Z,0
2016-05-05T03:37:34.724Z,0
2016-05-05T03:38:34.493Z,0
2016-05-05T03:39:35.417Z,0
2016-05-05T03:40:34.904Z,0
2016-05-05T03:41:34.438Z,0
2016-05-05T03:42:35.003Z,0
2016-05-05T03:43:34.240Z,0
2016-05-05T03:44:34.384Z,0
2016-05-05T03:45:34.370Z,0
2016-05-05T03:46:34.327Z,0
2016-05-05T03:47:34.173Z,0
2016-05-05T03:48:34.911Z,0
2016-05-05T03:49:34.303Z,0
2016-05-05T03:50:35.024Z,0
2016-05-05T03:51:34.418Z,0
2016-05-05T03:52:34.405Z,0
2016-05-05T03:53:34.220Z,0
2016-05-05T03:54:35.504Z,0
2016-05-05T03:55:34.335Z,0
2016-05-05T03:56:34.322Z,0
2016-05-05T03:57:34.294Z,0
2016-05-05T03:58:34.280Z,0
2016-05-05T03:59:33.955Z,0
2016-05-05T04:00:33.926Z,0
2016-05-05T04:01:34.070Z,0
2016-05-05T04:02:34.198Z,0
2016-05-05T04:03:34.184Z,0
2016-05-05T04:04:34.171Z,0
2016-05-05T04:05:34.143Z,0
2016-05-05T04:06:34.334Z,0
2016-05-05T04:07:34.118Z,0
2016-05-05T04:08:33.932Z,0
2016-05-05T04:09:34.185Z,0
2016-05-05T04:10:33.922Z,0
2016-05-05T04:11:34.034Z,0
2016-05-05T04:12:34.022Z,0
2016-05-05T04:13:33.915Z,0
2016-05-05T04:14:33.667Z,0
2016-05-05T04:15:33.983Z,0
2016-05-05T04:16:33.939Z,0
2016-05-05T04:17:33.942Z,0
2016-05-05T04:18:33.913Z,0
2016-05-05T04:19:33.900Z,0
2016-05-05T04:20:33.730Z,0
2016-05-05T04:21:33.952Z,0
2016-05-05T04:22:33.830Z,0
2016-05-05T04:23:33.832Z,0
2016-05-05T04:24:35.116Z,0
2016-05-05T04:25:33.619Z,0
2016-05-05T04:26:33.778Z,0
2016-05-05T04:27:33.438Z,0
2016-05-05T04:28:33.736Z,0
2016-05-05T04:29:33.911Z,0
2016-05-05T04:30:33.726Z,0
2016-05-05T04:31:33.526Z,0
2016-05-05T04:32:33.654Z,0
2016-05-05T04:33:33.656Z,0
2016-05-05T04:34:33.627Z,0
2016-05-05T04:35:33.598Z,0
2016-05-05T04:36:33.571Z,0
2016-05-05T04:37:33.917Z,0
2016-05-05T04:38:33.248Z,0
2016-05-05T04:39:33.391Z,0
2016-05-05T04:40:33.378Z,0
2016-05-05T04:41:33.490Z,0
2016-05-05T04:42:33.478Z,0
2016-05-05T04:43:33.464Z,0
2016-05-05T04:44:32.983Z,0
2016-05-05T04:45:33.970Z,0
2016-05-05T04:46:33.239Z,0
2016-05-05T04:47:33.381Z,0
2016-05-05T04:48:33.352Z,0
2016-05-05T04:49:33.340Z,0
2016-05-05T04:50:33.327Z,0
2016-05-05T04:51:33.314Z,0
2016-05-05T04:52:33.144Z,0
2016-05-05T04:53:33.976Z,0
2016-05-05T04:54:33.822Z,0
2016-05-05T04:55:33.277Z,0
2016-05-05T04:56:33.203Z,0
2016-05-05T04:57:33.189Z,0
2016-05-05T04:58:33.191Z,0
2016-05-05T04:59:33.164Z,0
2016-05-05T05:00:33.135Z,0
2016-05-05T05:01:33.232Z,0
2016-05-05T05:02:33.110Z,0
2016-05-05T05:03:32.799Z,0
2016-05-05T05:04:33.051Z,0
2016-05-05T05:05:33.039Z,0
2016-05-05T05:06:33.027Z,0
2016-05-05T05:07:32.998Z,0
2016-05-05T05:08:33.001Z,0
2016-05-05T05:09:34.909Z,0
2016-05-05T05:10:32.974Z,0
2016-05-05T05:11:32.945Z,0
2016-05-05T05:12:32.605Z,0
2016-05-05T05:13:32.889Z,0
2016-05-05T05:14:32.720Z,0
2016-05-05T05:15:32.863Z,0
2016-05-05T05:16:32.897Z,0
2016-05-05T05:17:33.227Z,0
2016-05-05T05:18:32.824Z,0
2016-05-05T05:19:32.780Z,0
2016-05-05T05:20:32.611Z,0
2016-05-05T05:21:32.754Z,0
2016-05-05T05:22:32.725Z,0
2016-05-05T05:23:32.713Z,0
2016-05-05T05:24:33.075Z,0
2016-05-05T05:25:32.671Z,0
2016-05-05T05:26:32.658Z,0
2016-05-05T05:27:32.488Z,0
2016-05-05T05:28:32.460Z,0
2016-05-05T05:29:32.619Z,0
2016-05-05T05:30:32.575Z,0
2016-05-05T05:31:32.405Z,0
2016-05-05T05:32:32.877Z,0
2016-05-05T05:33:32.552Z,0
2016-05-05T05:34:32.242Z,0
2016-05-05T05:35:32.510Z,0
2016-05-05T05:36:32.310Z,0
2016-05-05T05:37:32.453Z,0
2016-05-05T05:38:32.299Z,0
2016-05-05T05:39:33.599Z,0
2016-05-05T05:40:32.868Z,0
2016-05-05T05:41:32.386Z,0
2016-05-05T05:42:32.373Z,0
2016-05-05T05:43:32.187Z,0
2016-05-05T05:44:32.331Z,0
2016-05-05T05:45:32.147Z,0
2016-05-05T05:46:32.134Z,0
2016-05-05T05:47:32.277Z,0
2016-05-05T05:48:32.889Z,0
2016-05-05T05:49:32.236Z,0
2016-05-05T05:50:32.316Z,0
2016-05-05T05:51:32.194Z,0
2016-05-05T05:52:32.181Z,0
2016-05-05T05:53:32.168Z,0
2016-05-05T05:54:32.624Z,0
2016-05-05T05:55:32.142Z,0
2016-05-05T05:56:32.207Z,0
2016-05-05T05:57:31.929Z,0
2016-05-05T05:58:32.291Z,0
2016-05-05T05:59:31.903Z,0
2016-05-05T06:00:32.030Z,0
2016-05-05T06:01:32.018Z,0
2016-05-05T06:02:31.692Z,0
2016-05-05T06:03:31.820Z,0
2016-05-05T06:04:32.151Z,0
2016-05-05T06:05:31.966Z,0
2016-05-05T06:06:32.329Z,0
2016-05-05T06:07:31.909Z,0
2016-05-05T06:08:31.739Z,0
2016-05-05T06:09:32.195Z,0
2016-05-05T06:10:31.886Z,0
2016-05-05T06:11:31.904Z,0
2016-05-05T06:12:32.203Z,0
2016-05-05T06:13:31.800Z,0
2016-05-05T06:14:32.318Z,0
2016-05-05T06:15:31.836Z,0
2016-05-05T06:16:31.745Z,0
2016-05-05T06:17:31.717Z,0
2016-05-05T06:18:31.688Z,0
2016-05-05T06:19:31.722Z,0
2016-05-05T06:20:31.506Z,0
2016-05-05T06:21:31.650Z,0
2016-05-05T06:22:31.574Z,0
2016-05-05T06:23:31.993Z,0
2016-05-05T06:24:31.449Z,0
2016-05-05T06:25:31.591Z,0
2016-05-05T06:26:31.564Z,0
2016-05-05T06:27:31.832Z,0
2016-05-05T06:28:31.365Z,0
2016-05-05T06:29:31.384Z,0
2016-05-05T06:30:31.574Z,0
2016-05-05T06:31:31.452Z,0
2016-05-05T06:32:31.299Z,0
2016-05-05T06:33:31.410Z,0
2016-05-05T06:34:31.241Z,0
2016-05-05T06:35:31.681Z,0
2016-05-05T06:36:31.387Z,0
2016-05-05T06:37:31.359Z,0
2016-05-05T06:38:31.595Z,0
2016-05-05T06:39:32.161Z,0
2016-05-05T06:40:31.320Z,0
2016-05-05T06:41:31.275Z,0
2016-05-05T06:42:30.967Z,0
2016-05-05T06:43:31.844Z,0
2016-05-05T06:44:31.237Z,0
2016-05-05T06:45:31.099Z,0
2016-05-05T06:46:31.023Z,0
2016-05-05T06:47:31.167Z,0
2016-05-05T06:48:31.153Z,0
2016-05-05T06:49:30.985Z,0
2016-05-05T06:50:30.956Z,0
2016-05-05T06:51:31.099Z,0
2016-05-05T06:52:31.071Z,0
2016-05-05T06:53:31.261Z,0
2016-05-05T06:54:30.889Z,0
2016-05-05T06:55:31.016Z,0
2016-05-05T06:56:31.004Z,0
2016-05-05T06:57:30.991Z,0
2016-05-05T06:58:30.962Z,0
2016-05-05T06:59:31.152Z,0
2016-05-05T07:00:30.764Z,0
2016-05-05T07:01:31.221Z,0
2016-05-05T07:02:30.754Z,0
2016-05-05T07:03:30.882Z,0
2016-05-05T07:04:30.885Z,0
2016-05-05T07:05:30.685Z,0
2016-05-05T07:06:30.827Z,0
2016-05-05T07:07:30.955Z,0
2016-05-05T07:08:30.786Z,0
2016-05-05T07:09:31.773Z,0
2016-05-05T07:10:30.760Z,0
2016-05-05T07:11:30.715Z,0
2016-05-05T07:12:30.562Z,0
2016-05-05T07:13:30.706Z,0
2016-05-05T07:14:30.678Z,0
2016-05-05T07:15:31.101Z,0
2016-05-05T07:16:30.338Z,0
2016-05-05T07:17:31.232Z,0
2016-05-05T07:18:30.609Z,0
2016-05-05T07:19:30.269Z,0
2016-05-05T07:20:30.583Z,0
2016-05-05T07:21:30.539Z,0
2016-05-05T07:22:30.542Z,0
2016-05-05T07:23:30.513Z,0
2016-05-05T07:24:30.625Z,0
2016-05-05T07:25:30.488Z,0
2016-05-05T07:26:30.178Z,0
2016-05-05T07:27:30.290Z,0
2016-05-05T07:28:30.433Z,0
2016-05-05T07:29:30.421Z,0
2016-05-05T07:30:30.377Z,0
2016-05-05T07:31:30.207Z,0
2016-05-05T07:32:30.038Z,0
2016-05-05T07:33:30.525Z,0
2016-05-05T07:34:30.309Z,0
2016-05-05T07:35:30.312Z,0
2016-05-05T07:36:30.268Z,0
2016-05-05T07:37:30.254Z,0
2016-05-05T07:38:30.242Z,0
2016-05-05T07:39:30.525Z,0
2016-05-05T07:40:30.060Z,0
2016-05-05T07:41:30.031Z,0
2016-05-05T07:42:30.173Z,0
2016-05-05T07:43:30.162Z,0
2016-05-05T07:44:30.133Z,0
2016-05-05T07:45:30.104Z,0
2016-05-05T07:46:29.950Z,0
2016-05-05T07:47:29.937Z,0
2016-05-05T07:48:30.159Z,0
2016-05-05T07:49:29.880Z,0
2016-05-05T07:50:30.009Z,0
2016-05-05T07:51:30.011Z,0
2016-05-05T07:52:29.826Z,0
2016-05-05T07:53:29.985Z,0
2016-05-05T07:54:30.566Z,0
2016-05-05T07:55:29.927Z,0
2016-05-05T07:56:30.165Z,0
2016-05-05T07:57:29.746Z,0
2016-05-05T07:58:29.889Z,0
2016-05-05T07:59:29.392Z,0
2016-05-05T08:00:29.535Z,0
2016-05-05T08:01:29.835Z,0
2016-05-05T08:02:29.806Z,0
2016-05-05T08:03:29.637Z,0
2016-05-05T08:04:30.171Z,0
2016-05-05T08:05:29.752Z,0
2016-05-05T08:06:29.724Z,0
2016-05-05T08:07:29.570Z,0
2016-05-05T08:08:29.697Z,0
2016-05-05T08:09:30.451Z,0
2016-05-05T08:10:29.656Z,0
2016-05-05T08:11:29.643Z,0
2016-05-05T08:12:30.020Z,0
2016-05-05T08:13:29.617Z,0
2016-05-05T08:14:29.589Z,0
2016-05-05T08:15:29.420Z,0
2016-05-05T08:16:29.547Z,0
2016-05-05T08:17:29.549Z,0
2016-05-05T08:18:29.209Z,0
2016-05-05T08:19:29.523Z,0
2016-05-05T08:20:30.183Z,0
2016-05-05T08:21:29.467Z,0
2016-05-05T08:22:29.298Z,0
2016-05-05T08:23:29.425Z,0
2016-05-05T08:24:29.412Z,0
2016-05-05T08:25:29.399Z,0
2016-05-05T08:26:29.371Z,0
2016-05-05T08:27:29.358Z,0
2016-05-05T08:28:29.455Z,0
2016-05-05T08:29:29.160Z,0
2016-05-05T08:30:29.303Z,0
2016-05-05T08:31:29.150Z,0
2016-05-05T08:32:29.262Z,0
2016-05-05T08:33:29.249Z,0
2016-05-05T08:34:29.236Z,0
2016-05-05T08:35:29.223Z,0
2016-05-05T08:36:29.444Z,0
2016-05-05T08:37:29.166Z,0
2016-05-05T08:38:28.996Z,0
2016-05-05T08:39:29.015Z,0
2016-05-05T08:40:29.126Z,0
2016-05-05T08:41:29.098Z,0
2016-05-05T08:42:28.929Z,0
2016-05-05T08:43:29.073Z,0
2016-05-05T08:44:29.450Z,0
2016-05-05T08:45:29.048Z,0
2016-05-05T08:46:29.018Z,0
2016-05-05T08:47:29.005Z,0
2016-05-05T08:48:28.976Z,0
2016-05-05T08:49:28.808Z,0
2016-05-05T08:50:28.951Z,0
2016-05-05T08:51:29.078Z,0
2016-05-05T08:52:28.909Z,0
2016-05-05T08:53:28.912Z,0
2016-05-05T08:54:29.414Z,0
2016-05-05T08:55:28.870Z,0
2016-05-05T08:56:28.827Z,0
2016-05-05T08:57:28.673Z,0
2016-05-05T08:58:28.816Z,0
2016-05-05T08:59:29.099Z,0
2016-05-05T09:00:28.634Z,0
2016-05-05T09:01:28.606Z,0
2016-05-05T09:02:28.748Z,0
2016-05-05T09:03:28.580Z,0
2016-05-05T09:04:28.707Z,0
2016-05-05T09:05:28.679Z,0
2016-05-05T09:06:28.681Z,0
2016-05-05T09:07:28.934Z,0
2016-05-05T09:08:28.484Z,0
2016-05-05T09:09:28.877Z,0
2016-05-05T09:10:28.582Z,0
2016-05-05T09:11:28.570Z,0
2016-05-05T09:12:28.229Z,0
2016-05-05T09:13:28.373Z,0
2016-05-05T09:14:28.531Z,0
2016-05-05T09:15:28.940Z,0
2016-05-05T09:16:28.474Z,0
2016-05-05T09:17:28.462Z,0
2016-05-05T09:18:28.447Z,0
2016-05-05T09:19:28.435Z,0
2016-05-05T09:20:28.250Z,0
2016-05-05T09:21:28.394Z,0
2016-05-05T09:22:28.381Z,0
2016-05-05T09:23:29.102Z,0
2016-05-05T09:24:28.636Z,0
2016-05-05T09:25:28.513Z,0
2016-05-05T09:26:27.986Z,0
2016-05-05T09:27:28.300Z,0
2016-05-05T09:28:28.272Z,0
2016-05-05T09:29:28.087Z,0
2016-05-05T09:30:28.279Z,0
2016-05-05T09:31:28.208Z,0
2016-05-05T09:32:28.370Z,0
2016-05-05T09:33:28.481Z,0
2016-05-05T09:34:28.171Z,0
2016-05-05T09:35:28.142Z,0
2016-05-05T09:36:28.099Z,0
2016-05-05T09:37:28.101Z,0
2016-05-05T09:38:28.087Z,0
2016-05-05T09:39:28.294Z,0
2016-05-05T09:40:27.577Z,0
2016-05-05T09:41:28.518Z,0
2016-05-05T09:42:27.999Z,0
2016-05-05T09:43:27.987Z,0
2016-05-05T09:44:27.801Z,0
2016-05-05T09:45:27.944Z,0
2016-05-05T09:46:27.885Z,0
2016-05-05T09:47:27.997Z,0
2016-05-05T09:48:28.703Z,0
2016-05-05T09:49:27.768Z,0
2016-05-05T09:50:27.708Z,0
2016-05-05T09:51:27.820Z,0
2016-05-05T09:52:27.683Z,0
2016-05-05T09:53:27.825Z,0
2016-05-05T09:54:28.234Z,0
2016-05-05T09:55:27.784Z,0
2016-05-05T09:56:27.599Z,0
2016-05-05T09:57:27.789Z,0
2016-05-05T09:58:27.574Z,0
2016-05-05T09:59:27.685Z,0
2016-05-05T10:00:27.704Z,5
2016-05-05T10:01:27.660Z,5
2016-05-05T10:02:28.037Z,5
2016-05-05T10:03:27.633Z,5
2016-05-05T10:04:27.604Z,5
2016-05-05T10:05:27.779Z,5
2016-05-05T10:06:27.579Z,5
2016-05-05T10:07:27.394Z,5
2016-05-05T10:08:27.084Z,5
2016-05-05T10:09:27.431Z,5
2016-05-05T10:10:28.309Z,5
2016-05-05T10:11:27.295Z,5
2016-05-05T10:12:27.393Z,5
2016-05-05T10:13:27.285Z,5
2016-05-05T10:14:27.256Z,5
2016-05-05T10:15:27.416Z,5
2016-05-05T10:16:27.387Z,5
2016-05-05T10:17:27.202Z,5
2016-05-05T10:18:28.065Z,5
2016-05-05T10:19:27.442Z,5
2016-05-05T10:20:27.413Z,5
2016-05-05T10:21:27.307Z,5
2016-05-05T10:22:27.138Z,5
2016-05-05T10:23:27.266Z,5
2016-05-05T10:24:29.080Z,5
2016-05-05T10:25:27.239Z,5
2016-05-05T10:26:28.055Z,5
2016-05-05T10:27:27.198Z,5
2016-05-05T10:28:30.325Z,5
2016-05-05T10:29:27.032Z,5
2016-05-05T10:30:27.143Z,5
2016-05-05T10:31:27.115Z,5
2016-05-05T10:32:27.087Z,5
2016-05-05T10:33:27.121Z,5
2016-05-05T10:34:27.358Z,5
2016-05-05T10:35:26.907Z,10
2016-05-05T10:36:27.488Z,10
2016-05-05T10:37:27.022Z,10
2016-05-05T10:38:26.993Z,10
2016-05-05T10:39:27.215Z,10
2016-05-05T10:40:26.795Z,10
2016-05-05T10:41:26.782Z,10
2016-05-05T10:42:27.363Z,5
2016-05-05T10:43:26.898Z,10
2016-05-05T10:44:27.431Z,10
2016-05-05T10:45:26.856Z,10
2016-05-05T10:46:26.687Z,10
2016-05-05T10:47:26.674Z,10
2016-05-05T10:48:26.879Z,10
2016-05-05T10:49:26.492Z,10
2016-05-05T10:50:26.775Z,10
2016-05-05T10:51:26.747Z,10
2016-05-05T10:52:26.734Z,10
2016-05-05T10:53:26.721Z,10
2016-05-05T10:54:27.583Z,10
2016-05-05T10:55:27.008Z,10
2016-05-05T10:56:26.620Z,10
2016-05-05T10:57:26.497Z,10
2016-05-05T10:58:26.642Z,10
2016-05-05T10:59:26.688Z,10
2016-05-05T11:00:26.827Z,10
2016-05-05T11:01:26.421Z,10
2016-05-05T11:02:26.780Z,10
2016-05-05T11:03:26.603Z,10
2016-05-05T11:04:26.762Z,10
2016-05-05T11:05:26.765Z,10
2016-05-05T11:06:26.768Z,10
2016-05-05T11:07:26.598Z,10
2016-05-05T11:08:27.048Z,10
2016-05-05T11:09:26.743Z,10
2016-05-05T11:10:26.564Z,10
2016-05-05T11:11:26.713Z,10
2016-05-05T11:12:26.549Z,10
2016-05-05T11:13:26.710Z,10
2016-05-05T11:14:26.512Z,10
2016-05-05T11:15:26.656Z,10
2016-05-05T11:16:27.927Z,10
2016-05-05T11:17:26.462Z,10
2016-05-05T11:18:26.624Z,10
2016-05-05T11:19:26.439Z,10
2016-05-05T11:20:26.598Z,10
2016-05-05T11:21:26.540Z,10
2016-05-05T11:22:26.543Z,10
2016-05-05T11:23:26.684Z,10
2016-05-05T11:24:27.030Z,10
2016-05-05T11:25:26.471Z,10
2016-05-05T11:26:26.474Z,10
2016-05-05T11:27:26.289Z,15
2016-05-05T11:28:26.120Z,15
2016-05-05T11:29:26.092Z,15
2016-05-05T11:30:26.235Z,15
2016-05-05T11:31:26.723Z,15
2016-05-05T11:32:26.367Z,15
2016-05-05T11:33:26.338Z,15
2016-05-05T11:34:26.324Z,15
2016-05-05T11:35:26.311Z,15
2016-05-05T11:36:25.971Z,15
2016-05-05T11:37:26.269Z,15
2016-05-05T11:38:26.085Z,15
2016-05-05T11:39:27.105Z,15
2016-05-05T11:40:26.200Z,15
2016-05-05T11:41:26.188Z,15
2016-05-05T11:42:26.174Z,15
2016-05-05T11:43:26.161Z,15
2016-05-05T11:44:26.117Z,15
2016-05-05T11:45:26.136Z,15
2016-05-05T11:46:25.792Z,15
2016-05-05T11:47:26.719Z,15
2016-05-05T11:48:26.047Z,15
2016-05-05T11:49:26.018Z,15
2016-05-05T11:50:26.037Z,15
2016-05-05T11:51:25.993Z,15
2016-05-05T11:52:25.964Z,15
2016-05-05T11:53:25.670Z,15
2016-05-05T11:54:26.251Z,15
2016-05-05T11:55:26.363Z,15
2016-05-05T11:56:25.601Z,15
2016-05-05T11:57:25.884Z,20
2016-05-05T11:58:25.871Z,20
2016-05-05T11:59:25.858Z,20
2016-05-05T12:00:25.845Z,20
2016-05-05T12:01:25.831Z,20
2016-05-05T12:02:25.834Z,20
2016-05-05T12:03:25.681Z,25
2016-05-05T12:04:25.606Z,25
2016-05-05T12:05:25.750Z,25
2016-05-05T12:06:25.580Z,25
2016-05-05T12:07:25.567Z,25
2016-05-05T12:08:25.710Z,25
2016-05-05T12:09:26.744Z,25
2016-05-05T12:10:25.653Z,25
2016-05-05T12:11:25.906Z,30
2016-05-05T12:12:25.627Z,30
2016-05-05T12:13:25.614Z,30
2016-05-05T12:14:25.429Z,30
2016-05-05T12:15:25.573Z,30
2016-05-05T12:16:25.403Z,30
2016-05-05T12:17:25.375Z,30
2016-05-05T12:18:25.628Z,30
2016-05-05T12:19:25.365Z,30
2016-05-05T12:20:25.337Z,30
2016-05-05T12:21:25.479Z,30
2016-05-05T12:22:25.138Z,30
2016-05-05T12:23:25.265Z,30
2016-05-05T12:24:27.003Z,30
2016-05-05T12:25:25.491Z,30
2016-05-05T12:26:25.493Z,35
2016-05-05T12:27:26.949Z,35
2016-05-05T12:28:25.342Z,35
2016-05-05T12:29:25.329Z,35
2016-05-05T12:30:25.316Z,35
2016-05-05T12:31:25.288Z,35
2016-05-05T12:32:25.119Z,40
2016-05-05T12:33:24.964Z,40
2016-05-05T12:34:25.639Z,40
2016-05-05T12:35:25.236Z,40
2016-05-05T12:36:24.988Z,40
2016-05-05T12:37:25.194Z,40
2016-05-05T12:38:25.181Z,40
2016-05-05T12:39:25.169Z,40
2016-05-05T12:40:25.030Z,40
2016-05-05T12:41:25.127Z,40
2016-05-05T12:42:25.661Z,40
2016-05-05T12:43:25.085Z,40
2016-05-05T12:44:25.057Z,40
2016-05-05T12:45:24.904Z,40
2016-05-05T12:46:25.032Z,40
2016-05-05T12:47:24.705Z,40
2016-05-05T12:48:25.005Z,40
2016-05-05T12:49:24.993Z,40
2016-05-05T12:50:25.526Z,40
2016-05-05T12:51:24.982Z,40
2016-05-05T12:52:25.047Z,40
2016-05-05T12:53:24.768Z,40
2016-05-05T12:54:24.912Z,40
2016-05-05T12:55:24.915Z,40
2016-05-05T12:56:24.871Z,40
2016-05-05T12:57:24.857Z,40
2016-05-05T12:58:24.922Z,40
2016-05-05T12:59:24.816Z,40
2016-05-05T13:00:25.038Z,40
2016-05-05T13:01:24.775Z,40
2016-05-05T13:02:24.637Z,40
2016-05-05T13:03:24.748Z,40
2016-05-05T13:04:24.736Z,35
2016-05-05T13:05:24.723Z,35
2016-05-05T13:06:24.944Z,35
2016-05-05T13:07:24.681Z,35
2016-05-05T13:08:25.075Z,35
2016-05-05T13:09:24.640Z,35
2016-05-05T13:10:24.205Z,35
2016-05-05T13:11:24.599Z,35
2016-05-05T13:12:24.289Z,35
2016-05-05T13:13:24.416Z,35
2016-05-05T13:14:24.982Z,35
2016-05-05T13:15:24.562Z,35
2016-05-05T13:16:25.080Z,35
2016-05-05T13:17:24.505Z,35
2016-05-05T13:18:24.493Z,35
2016-05-05T13:19:24.323Z,30
2016-05-05T13:20:24.451Z,30
2016-05-05T13:21:24.282Z,30
2016-05-05T13:22:24.425Z,30
2016-05-05T13:23:24.271Z,30
2016-05-05T13:24:25.055Z,30
2016-05-05T13:25:26.527Z,30
2016-05-05T13:26:24.217Z,30
2016-05-05T13:27:24.345Z,30
2016-05-05T13:28:24.348Z,30
2016-05-05T13:29:24.615Z,30
2016-05-05T13:30:24.275Z,30
2016-05-05T13:31:24.121Z,30
2016-05-05T13:32:24.358Z,30
2016-05-05T13:33:24.079Z,30
2016-05-05T13:34:23.754Z,30
2016-05-05T13:35:24.039Z,30
2016-05-05T13:36:24.041Z,30
2016-05-05T13:37:35.359Z,30
2016-05-05T13:38:31.062Z,30
2016-05-05T13:39:24.892Z,30
2016-05-05T13:40:25.770Z,30
2016-05-05T13:41:23.961Z,30
2016-05-05T13:42:23.916Z,30
2016-05-05T13:43:23.919Z,30
2016-05-05T13:44:24.063Z,25
2016-05-05T13:45:24.690Z,25
2016-05-05T13:46:24.021Z,25
2016-05-05T13:47:24.008Z,25
2016-05-05T13:48:24.386Z,25
2016-05-05T13:49:23.810Z,25
2016-05-05T13:50:23.796Z,25
2016-05-05T13:51:23.628Z,25
2016-05-05T13:52:23.615Z,25
2016-05-05T13:53:24.555Z,25
2016-05-05T13:54:23.871Z,25
2016-05-05T13:55:24.060Z,25
2016-05-05T13:56:23.829Z,25
2016-05-05T13:57:23.676Z,25
2016-05-05T13:58:23.662Z,25
2016-05-05T13:59:23.790Z,25
2016-05-05T14:00:23.606Z,25
2016-05-05T14:01:23.764Z,25
2016-05-05T14:02:23.767Z,25
2016-05-05T14:03:23.972Z,25
2016-05-05T14:04:23.584Z,25
2016-05-05T14:05:23.697Z,25
2016-05-05T14:06:23.528Z,25
2016-05-05T14:07:23.514Z,25
2016-05-05T14:08:23.642Z,25
2016-05-05T14:09:23.770Z,25
2016-05-05T14:10:25.820Z,25
2016-05-05T14:11:24.041Z,25
2016-05-05T14:12:23.278Z,20
2016-05-05T14:13:23.562Z,25
2016-05-05T14:14:23.534Z,20
2016-05-05T14:15:23.536Z,25
2016-05-05T14:16:23.367Z,20
2016-05-05T14:17:23.932Z,25
2016-05-05T14:18:23.326Z,25
2016-05-05T14:19:24.031Z,20
2016-05-05T14:20:23.284Z,20
2016-05-05T14:21:23.428Z,20
2016-05-05T14:22:23.415Z,20
2016-05-05T14:23:23.401Z,20
2016-05-05T14:24:23.232Z,20
2016-05-05T14:25:23.251Z,20
2016-05-05T14:26:23.191Z,20
2016-05-05T14:27:24.021Z,25
2016-05-05T14:28:22.993Z,25
2016-05-05T14:29:23.277Z,20
2016-05-05T14:30:23.249Z,20
2016-05-05T14:31:23.251Z,20
2016-05-05T14:32:23.223Z,20
2016-05-05T14:33:23.210Z,20
2016-05-05T14:34:23.041Z,20
2016-05-05T14:35:23.293Z,20
2016-05-05T14:36:23.155Z,10
2016-05-05T14:37:23.002Z,10
2016-05-05T14:38:23.129Z,10